createdAt,value
2019-01-21T00:02:39.739Z,9.60
2019-01-21T00:06:43.786Z,9.00
2019-01-21T00:10:47.753Z,11.30
2019-01-21T00:14:51.614Z,9.30
2019-01-21T00:18:55.442Z,8.80
2019-01-21T00:22:59.373Z,8.53
2019-01-21T00:27:03.267Z,8.13
2019-01-21T00:31:07.799Z,6.87
2019-01-21T00:35:11.699Z,8.33
2019-01-21T00:39:16.727Z,8.07
2019-01-21T00:43:20.592Z,8.83
2019-01-21T00:47:29.775Z,7.30
2019-01-21T00:51:29.938Z,7.03
2019-01-21T00:55:33.786Z,6.97
2019-01-21T00:59:37.663Z,10.90
2019-01-21T01:03:41.522Z,8.23
2019-01-21T01:07:45.524Z,7.70
2019-01-21T01:11:49.496Z,7.80
2019-01-21T01:15:53.327Z,7.00
2019-01-21T01:19:57.190Z,7.43
2019-01-21T01:24:00.975Z,6.63
2019-01-21T01:28:05.076Z,6.73
2019-01-21T01:32:09.084Z,7.00
2019-01-21T01:36:13.152Z,6.80
2019-01-21T01:40:17.967Z,6.33
2019-01-21T01:44:22.778Z,6.07
2019-01-21T01:48:26.633Z,6.37
2019-01-21T01:52:30.654Z,7.27
2019-01-21T01:56:34.598Z,6.83
2019-01-21T02:00:38.477Z,6.47
2019-01-21T02:04:42.494Z,7.43
2019-01-21T02:08:46.432Z,7.23
2019-01-21T02:12:51.347Z,6.77
2019-01-21T02:16:55.248Z,7.13
2019-01-21T02:20:59.004Z,6.63
2019-01-21T02:25:02.969Z,6.87
2019-01-21T02:29:09.006Z,6.70
2019-01-21T02:33:22.201Z,6.27
2019-01-21T02:37:45.345Z,7.47
2019-01-21T02:41:59.295Z,6.80
2019-01-21T02:46:13.630Z,6.33
2019-01-21T02:50:36.854Z,7.23
2019-01-21T02:54:45.874Z,5.73
2019-01-21T02:59:08.784Z,6.93
2019-01-21T03:03:20.132Z,6.50
2019-01-21T03:07:27.967Z,6.20
2019-01-21T03:11:42.992Z,7.23
2019-01-21T03:16:06.173Z,6.90
2019-01-21T03:20:13.764Z,6.97
2019-01-21T03:24:37.126Z,6.37
2019-01-21T03:28:46.565Z,7.47
2019-01-21T03:33:03.822Z,8.33
2019-01-21T03:37:15.423Z,13.23
2019-01-21T03:41:23.056Z,15.70
2019-01-21T03:45:30.466Z,10.90
2019-01-21T03:49:38.092Z,7.50
2019-01-21T03:53:47.798Z,7.53
2019-01-21T03:57:56.825Z,7.40
2019-01-21T04:02:19.562Z,6.60
2019-01-21T04:06:26.735Z,6.50
2019-01-21T04:10:42.041Z,7.67
2019-01-21T04:15:05.247Z,8.30
2019-01-21T04:19:12.250Z,8.73
2019-01-21T04:23:35.595Z,8.00
2019-01-21T04:27:58.992Z,8.13
2019-01-21T04:32:07.308Z,14.90
2019-01-21T04:36:24.213Z,12.27
2019-01-21T04:40:32.746Z,9.60
2019-01-21T04:44:54.129Z,7.80
2019-01-21T04:49:17.387Z,7.10
2019-01-21T04:53:26.557Z,7.57
2019-01-21T04:57:39.651Z,7.13
2019-01-21T05:06:16.207Z,7.43
2019-01-21T05:10:24.434Z,6.80
2019-01-21T05:14:36.063Z,7.30
2019-01-21T05:18:58.169Z,6.83
2019-01-21T05:23:21.331Z,7.40
2019-01-21T05:27:31.352Z,7.30
2019-01-21T05:31:41.934Z,7.93
2019-01-21T05:35:58.114Z,7.07
2019-01-21T05:40:06.490Z,7.67
2019-01-21T05:44:29.708Z,7.23
2019-01-21T05:48:39.903Z,8.80
2019-01-21T05:52:49.420Z,8.47
2019-01-21T05:57:00.428Z,8.43
2019-01-21T06:01:42.885Z,8.43
2019-01-21T06:05:52.920Z,8.37
2019-01-21T06:10:01.071Z,7.53
2019-01-21T06:14:09.572Z,9.73
2019-01-21T06:18:33.014Z,9.33
2019-01-21T07:18:59.791Z,8.43
2019-01-21T07:23:23.177Z,6.87
2019-01-21T07:27:31.648Z,7.33
2019-01-21T07:31:38.601Z,7.00
2019-01-21T07:35:52.711Z,7.43
2019-01-21T07:40:15.908Z,7.80
2019-01-21T07:44:39.088Z,8.23
2019-01-21T07:48:54.888Z,9.47
2019-01-21T07:53:13.258Z,8.83
2019-01-21T07:57:31.799Z,8.30
2019-01-21T08:01:42.687Z,9.13
2019-01-21T08:06:06.002Z,8.23
2019-01-21T08:10:24.472Z,7.17
2019-01-21T08:14:47.705Z,8.60
2019-01-21T08:18:57.088Z,8.73
2019-01-21T08:23:13.415Z,7.63
2019-01-21T09:43:13.341Z,7.73
2019-01-21T09:51:34.010Z,7.70
2019-01-21T09:55:38.863Z,8.20
2019-01-21T09:59:42.756Z,8.77
2019-01-21T10:03:46.770Z,8.40
2019-01-21T10:08:10.031Z,9.63
2019-01-21T10:12:21.083Z,16.57
2019-01-21T12:06:56.282Z,5.67
2019-01-21T12:11:06.776Z,4.40
2019-01-21T12:15:20.366Z,5.23
2019-01-21T12:19:30.881Z,4.70
2019-01-21T12:23:54.428Z,3.13
2019-01-21T12:28:17.810Z,3.73
2019-01-21T12:32:40.915Z,4.10
2019-01-21T12:36:48.544Z,3.47
2019-01-21T12:41:01.756Z,3.43
2019-01-21T12:45:16.039Z,2.63
2019-01-21T12:49:26.694Z,2.60
2019-01-21T12:53:50.204Z,2.67
2019-01-21T12:58:08.479Z,3.53
2019-01-21T13:02:22.942Z,2.40
2019-01-21T13:06:33.809Z,4.03
2019-01-21T13:10:41.708Z,9.10
2019-01-21T13:14:51.520Z,8.50
2019-01-21T13:19:14.952Z,6.20
2019-01-21T13:23:29.340Z,6.87
2019-01-21T13:27:40.194Z,7.37
2019-01-21T13:32:03.489Z,5.30
2019-01-21T13:36:12.477Z,8.63
2019-01-21T13:40:35.846Z,16.20
2019-01-21T13:44:59.130Z,4.50
2019-01-21T13:49:22.414Z,4.97
2019-01-21T13:53:37.227Z,5.50
2019-01-21T13:57:49.000Z,5.70
2019-01-21T14:01:58.755Z,6.03
2019-01-21T14:06:08.576Z,5.00
2019-01-21T14:10:31.867Z,6.27
2019-01-21T14:14:39.225Z,4.00
2019-01-21T14:18:52.448Z,3.90
2019-01-21T14:23:07.482Z,6.27
2019-01-21T14:27:26.566Z,6.50
2019-01-21T14:31:36.505Z,5.13
2019-01-21T14:35:46.097Z,4.50
2019-01-21T14:39:52.545Z,4.20
2019-01-21T14:44:15.708Z,5.17
2019-01-21T14:48:27.583Z,3.53
2019-01-21T14:52:50.855Z,3.67
2019-01-21T14:56:58.915Z,3.17
2019-01-21T15:01:09.510Z,5.10
2019-01-21T15:05:17.948Z,6.23
2019-01-21T15:09:41.171Z,7.53
2019-01-21T15:13:49.451Z,9.50
2019-01-21T15:18:12.757Z,9.17
2019-01-21T15:22:21.533Z,7.83
2019-01-21T15:26:29.864Z,7.60
2019-01-21T15:30:40.463Z,5.67
2019-01-21T15:35:03.734Z,6.10
2019-01-21T15:39:27.045Z,4.73
2019-01-21T15:43:34.863Z,5.30
2019-01-21T15:47:42.900Z,7.80
2019-01-21T15:51:57.505Z,5.90
2019-01-21T15:56:20.875Z,4.80
2019-01-21T16:00:35.679Z,5.17
2019-01-21T16:04:59.867Z,4.93
2019-01-21T16:09:11.630Z,5.63
2019-01-21T16:13:19.084Z,5.07
2019-01-21T16:17:30.367Z,5.63
2019-01-21T16:21:53.550Z,7.27
2019-01-21T16:26:00.346Z,8.50
2019-01-21T16:30:10.575Z,11.00
2019-01-21T16:34:23.057Z,8.33
2019-01-21T16:38:30.408Z,8.47
2019-01-21T16:42:34.902Z,6.93
2019-01-21T16:46:39.923Z,6.97
2019-01-21T16:50:43.735Z,7.20
2019-01-21T16:54:47.891Z,7.23
2019-01-21T16:58:51.836Z,6.47
2019-01-21T17:02:55.690Z,8.23
2019-01-21T17:06:59.705Z,12.50
2019-01-21T17:11:03.515Z,9.57
2019-01-21T17:15:07.862Z,7.43
2019-01-21T17:19:11.834Z,7.03
2019-01-21T17:23:15.706Z,5.87
2019-01-21T17:27:19.654Z,6.00
2019-01-21T17:31:23.659Z,8.63
2019-01-21T17:35:27.493Z,9.10
2019-01-21T17:39:31.758Z,8.17
2019-01-21T17:43:35.896Z,7.43
2019-01-21T17:47:39.892Z,7.30
2019-01-21T17:51:43.845Z,7.17
2019-01-21T17:55:47.764Z,9.43
2019-01-21T17:59:51.582Z,8.73
2019-01-21T18:03:55.395Z,8.50
2019-01-21T18:07:59.452Z,6.60
2019-01-21T18:12:03.435Z,5.87
2019-01-21T18:16:07.511Z,6.27
2019-01-21T18:20:13.507Z,4.93
2019-01-21T18:24:17.383Z,5.07
2019-01-21T18:28:21.237Z,5.50
2019-01-21T18:32:25.166Z,6.47
2019-01-21T18:36:29.077Z,6.73
2019-01-21T18:40:32.909Z,7.07
2019-01-21T18:44:36.750Z,6.13
2019-01-21T18:48:40.554Z,6.70
2019-01-21T18:52:44.672Z,6.00
2019-01-21T18:56:48.608Z,8.10
2019-01-21T19:00:52.496Z,7.47
2019-01-21T19:04:56.533Z,7.23
2019-01-21T19:09:06.236Z,6.87
2019-01-21T19:13:10.069Z,6.73
2019-01-21T19:17:13.984Z,7.37
2019-01-21T19:21:17.955Z,8.27
2019-01-21T19:25:21.920Z,9.13
2019-01-21T19:29:25.871Z,8.10
2019-01-21T19:33:30.974Z,7.20
2019-01-21T19:37:34.948Z,4.77
2019-01-21T19:41:38.897Z,4.70
2019-01-21T19:45:43.793Z,5.03
2019-01-21T19:49:47.721Z,3.87
2019-01-21T19:53:51.922Z,3.93
2019-01-21T19:57:55.851Z,3.73
2019-01-21T20:01:59.735Z,3.60
2019-01-21T20:06:03.712Z,4.27
2019-01-21T20:10:08.826Z,4.67
2019-01-21T20:14:12.591Z,4.20
2019-01-21T20:18:16.549Z,3.63
2019-01-21T20:22:20.391Z,4.30
2019-01-21T20:26:24.260Z,4.67
2019-01-21T20:30:28.181Z,4.50
2019-01-21T20:34:32.383Z,3.47
2019-01-21T20:38:36.297Z,4.27
2019-01-21T20:42:40.165Z,4.17
2019-01-21T20:46:44.203Z,4.20
2019-01-21T20:50:48.169Z,4.23
2019-01-21T20:54:52.082Z,4.33
2019-01-21T20:58:55.983Z,4.33
2019-01-21T21:03:00.374Z,3.57
2019-01-21T21:07:04.468Z,3.83
2019-01-21T21:11:08.463Z,4.13
2019-01-21T21:15:13.949Z,4.50
2019-01-21T21:19:17.935Z,4.87
2019-01-21T21:23:21.729Z,4.40
2019-01-21T21:27:26.665Z,4.43
2019-01-21T21:31:30.545Z,5.20
2019-01-21T21:35:34.518Z,5.57
2019-01-21T21:39:38.363Z,5.30
2019-01-21T21:43:42.298Z,5.97
2019-01-21T21:47:46.182Z,6.57
2019-01-21T21:51:50.297Z,5.40
2019-01-21T21:55:54.282Z,6.23
2019-01-21T21:59:58.263Z,6.10
2019-01-21T22:04:02.176Z,6.00
2019-01-21T22:08:07.075Z,5.50
2019-01-21T22:12:11.476Z,6.07
2019-01-21T22:16:15.480Z,5.63
2019-01-21T22:20:20.201Z,6.00
2019-01-21T22:24:24.115Z,5.27
2019-01-21T22:28:28.026Z,6.43
2019-01-21T22:32:32.395Z,5.97
2019-01-21T22:36:36.719Z,6.13
2019-01-21T22:40:40.632Z,5.43
2019-01-21T22:44:44.535Z,6.20
2019-01-21T22:48:48.551Z,5.90
2019-01-21T22:52:52.380Z,5.27
2019-01-21T22:56:56.184Z,5.93
2019-01-21T23:01:19.374Z,5.43
2019-01-21T23:05:23.727Z,5.57
2019-01-21T23:09:30.633Z,6.00
2019-01-21T23:13:34.467Z,5.13
2019-01-21T23:17:39.349Z,5.33
2019-01-21T23:21:43.231Z,4.93
2019-01-21T23:25:47.027Z,5.20
2019-01-21T23:29:50.850Z,5.47
2019-01-21T23:33:54.889Z,5.23
2019-01-21T23:37:58.830Z,5.30
2019-01-21T23:42:02.837Z,5.23
2019-01-21T23:46:06.694Z,5.53
2019-01-21T23:50:10.529Z,5.93
2019-01-21T23:54:15.297Z,4.77
2019-01-21T23:58:19.521Z,6.30
